createdAt,value
2023-09-15T00:00:15.835Z,4.00
2023-09-15T00:02:44.605Z,2.63
2023-09-15T00:05:13.193Z,3.83
2023-09-15T00:07:41.209Z,2.33
2023-09-15T00:10:12.805Z,3.13
2023-09-15T00:12:42.724Z,2.85
2023-09-15T00:15:11.299Z,2.58
2023-09-15T00:17:39.916Z,3.58
2023-09-15T00:20:14.235Z,3.08
2023-09-15T00:22:42.906Z,2.50
2023-09-15T00:25:11.201Z,3.03
2023-09-15T00:27:39.758Z,2.67
2023-09-15T00:30:10.085Z,2.58
2023-09-15T00:32:38.220Z,4.30
2023-09-15T00:35:06.384Z,2.25
2023-09-15T00:37:34.150Z,2.55
2023-09-15T00:40:02.032Z,2.90
2023-09-15T00:42:30.472Z,2.90
2023-09-15T00:45:03.940Z,2.55
2023-09-15T00:47:33.709Z,2.58
2023-09-15T00:50:02.264Z,2.50
2023-09-15T00:52:30.275Z,2.10
2023-09-15T00:54:58.293Z,2.05
2023-09-15T00:57:27.352Z,2.17
2023-09-15T00:59:55.332Z,2.83
2023-09-15T01:02:23.089Z,2.35
2023-09-15T01:04:52.287Z,1.92
2023-09-15T01:07:19.955Z,2.35
2023-09-15T01:09:47.518Z,3.85
2023-09-15T01:12:15.215Z,2.28
2023-09-15T01:14:43.158Z,2.13
2023-09-15T01:17:14.501Z,1.80
2023-09-15T01:19:54.632Z,2.03
2023-09-15T01:22:38.257Z,2.05
2023-09-15T01:25:22.198Z,2.10
2023-09-15T01:28:00.054Z,2.15
2023-09-15T01:30:31.116Z,2.60
2023-09-15T01:33:00.177Z,2.30
2023-09-15T01:35:27.959Z,2.40
2023-09-15T01:37:55.627Z,2.75
2023-09-15T01:40:23.464Z,3.85
2023-09-15T01:42:52.999Z,2.72
2023-09-15T01:45:20.893Z,3.15
2023-09-15T01:47:50.120Z,2.80
2023-09-15T01:50:17.946Z,3.15
2023-09-15T01:52:46.304Z,3.03
2023-09-15T01:55:16.558Z,6.38
2023-09-15T01:57:44.302Z,2.40
2023-09-15T02:00:12.848Z,2.35
2023-09-15T02:02:43.012Z,2.70
2023-09-15T02:05:14.428Z,4.85
2023-09-15T02:07:42.284Z,2.80
2023-09-15T02:10:10.754Z,2.30
2023-09-15T02:12:38.402Z,2.65
2023-09-15T02:15:07.275Z,3.75
2023-09-15T02:17:35.169Z,2.28
2023-09-15T02:20:08.365Z,2.10
2023-09-15T02:22:37.511Z,3.30
2023-09-15T02:25:05.416Z,2.60
2023-09-15T02:27:33.225Z,2.63
2023-09-15T02:30:01.028Z,2.70
2023-09-15T02:32:28.723Z,3.38
2023-09-15T02:34:56.401Z,4.82
2023-09-15T02:37:24.995Z,2.83
2023-09-15T02:39:54.360Z,2.92
2023-09-15T02:42:22.105Z,4.25
2023-09-15T02:44:50.078Z,4.72
2023-09-15T02:47:19.801Z,2.97
2023-09-15T02:49:47.543Z,3.83
2023-09-15T02:52:15.407Z,3.78
2023-09-15T02:54:44.524Z,4.88
2023-09-15T02:57:14.275Z,2.63
2023-09-15T02:59:42.162Z,3.03
2023-09-15T03:02:13.882Z,2.63
2023-09-15T03:04:46.694Z,3.05
2023-09-15T03:07:14.625Z,2.90
2023-09-15T03:09:42.744Z,3.38
2023-09-15T03:12:10.544Z,3.03
2023-09-15T03:14:40.396Z,2.38
2023-09-15T03:17:08.821Z,4.30
2023-09-15T03:19:36.729Z,5.10
2023-09-15T03:22:07.917Z,5.93
2023-09-15T03:24:38.528Z,24.35
2023-09-15T03:27:07.132Z,24.50
2023-09-15T03:29:35.375Z,13.40
2023-09-15T03:32:05.041Z,7.75
2023-09-15T03:34:32.927Z,6.65
2023-09-15T03:37:02.599Z,4.43
2023-09-15T03:39:30.510Z,3.65
2023-09-15T03:41:58.279Z,2.60
2023-09-15T03:44:26.453Z,2.10
2023-09-15T03:46:54.956Z,1.85
2023-09-15T03:49:24.645Z,1.65
2023-09-15T03:51:52.391Z,1.83
2023-09-15T03:54:20.124Z,1.70
2023-09-15T03:56:47.894Z,1.90
2023-09-15T03:59:15.911Z,1.80
2023-09-15T04:01:47.450Z,4.07
2023-09-15T04:04:15.793Z,1.48
2023-09-15T04:06:44.901Z,2.75
2023-09-15T04:09:14.065Z,1.83
2023-09-15T04:11:41.979Z,1.77
2023-09-15T04:14:09.683Z,1.70
2023-09-15T04:16:38.951Z,2.20
2023-09-15T04:19:06.852Z,1.85
2023-09-15T04:21:35.226Z,1.80
2023-09-15T04:24:05.031Z,1.80
2023-09-15T04:26:32.743Z,2.17
2023-09-15T04:29:00.630Z,1.63
2023-09-15T04:31:29.993Z,1.42
2023-09-15T04:33:58.082Z,1.85
2023-09-15T04:36:25.829Z,6.00
2023-09-15T04:38:53.951Z,1.98
2023-09-15T04:41:23.499Z,1.73
2023-09-15T04:43:52.300Z,1.60
2023-09-15T04:46:21.316Z,2.00
2023-09-15T04:48:49.510Z,1.92
2023-09-15T04:51:17.685Z,3.60
2023-09-15T04:53:45.743Z,1.90
2023-09-15T04:56:14.007Z,2.03
2023-09-15T04:58:46.428Z,2.08
2023-09-15T05:01:18.152Z,1.90
2023-09-15T05:03:47.228Z,2.30
2023-09-15T05:06:15.351Z,1.95
2023-09-15T05:08:43.807Z,2.50
2023-09-15T05:11:11.406Z,2.42
2023-09-15T05:13:39.070Z,2.60
2023-09-15T05:16:08.971Z,3.05
2023-09-15T05:18:36.908Z,2.60
2023-09-15T05:21:04.684Z,2.78
2023-09-15T05:23:33.312Z,2.58
2023-09-15T05:26:01.036Z,2.30
2023-09-15T05:28:28.786Z,2.40
2023-09-15T05:30:59.167Z,2.60
2023-09-15T05:33:28.502Z,3.00
2023-09-15T05:35:56.164Z,2.90
2023-09-15T05:38:23.974Z,3.25
2023-09-15T05:40:52.539Z,2.40
2023-09-15T05:43:20.954Z,2.85
2023-09-15T05:45:49.144Z,2.90
2023-09-15T05:48:19.065Z,3.10
2023-09-15T05:50:48.006Z,6.85
2023-09-15T05:53:16.143Z,4.22
2023-09-15T05:55:43.826Z,3.65
2023-09-15T05:58:11.770Z,4.75
2023-09-15T06:00:39.581Z,4.47
2023-09-15T06:03:07.348Z,3.85
2023-09-15T06:05:35.605Z,3.78
2023-09-15T06:08:07.647Z,3.65
2023-09-15T06:10:36.884Z,3.58
2023-09-15T06:13:05.006Z,3.83
2023-09-15T06:15:35.047Z,3.28
2023-09-15T06:18:02.955Z,3.17
2023-09-15T06:20:31.821Z,3.22
2023-09-15T06:22:59.520Z,3.90
2023-09-15T06:25:28.502Z,2.90
2023-09-15T06:28:04.457Z,3.35
2023-09-15T06:30:38.870Z,3.33
2023-09-15T06:33:06.431Z,3.40
2023-09-15T06:35:34.178Z,3.08
2023-09-15T06:38:01.944Z,3.03
2023-09-15T06:40:30.914Z,3.50
2023-09-15T06:42:58.707Z,3.40
2023-09-15T06:45:26.375Z,4.22
2023-09-15T06:47:54.035Z,4.00
2023-09-15T06:50:22.063Z,4.15
2023-09-15T06:52:50.550Z,4.32
2023-09-15T06:55:18.611Z,4.50
2023-09-15T06:57:47.582Z,6.18
2023-09-15T07:00:15.370Z,4.53
2023-09-15T07:02:42.959Z,4.53
2023-09-15T07:05:11.996Z,4.35
2023-09-15T07:07:39.768Z,4.47
2023-09-15T07:10:08.236Z,4.15
2023-09-15T07:12:36.126Z,4.15
2023-09-15T07:15:06.417Z,4.28
2023-09-15T07:17:34.266Z,4.57
2023-09-15T07:20:02.355Z,4.00
2023-09-15T07:22:30.549Z,4.00
2023-09-15T07:24:58.542Z,4.10
2023-09-15T07:27:26.550Z,3.88
2023-09-15T07:29:54.222Z,4.00
2023-09-15T07:32:23.563Z,4.45
2023-09-15T07:34:51.662Z,4.13
2023-09-15T07:37:19.929Z,4.05
2023-09-15T07:39:47.761Z,3.75
2023-09-15T07:42:15.351Z,3.95
2023-09-15T07:44:42.997Z,4.50
2023-09-15T07:47:13.582Z,3.75
2023-09-15T07:49:43.218Z,4.00
2023-09-15T07:52:10.977Z,4.00
2023-09-15T07:54:38.873Z,4.03
2023-09-15T07:57:06.856Z,4.72
2023-09-15T07:59:34.499Z,4.93
2023-09-15T08:02:02.210Z,5.20
2023-09-15T08:04:31.065Z,5.07
2023-09-15T08:07:00.085Z,4.90
2023-09-15T08:09:27.706Z,5.05
2023-09-15T08:11:55.653Z,4.55
2023-09-15T08:14:23.823Z,5.40
2023-09-15T08:16:51.607Z,5.10
2023-09-15T08:19:19.699Z,4.70
2023-09-15T08:21:47.427Z,4.40
2023-09-15T08:24:16.509Z,4.60
2023-09-15T08:26:45.018Z,5.20
2023-09-15T08:29:13.656Z,4.75
2023-09-15T08:31:41.570Z,4.97
2023-09-15T08:34:10.239Z,4.72
2023-09-15T08:36:37.950Z,4.88
2023-09-15T08:39:05.866Z,5.25
2023-09-15T08:41:40.311Z,5.13
2023-09-15T08:44:09.033Z,4.90
2023-09-15T08:46:37.587Z,5.25
2023-09-15T08:49:06.489Z,4.80
2023-09-15T08:51:34.332Z,5.50
2023-09-15T08:54:04.596Z,4.55
2023-09-15T08:56:32.755Z,5.00
2023-09-15T08:59:02.591Z,4.95
2023-09-15T09:01:31.652Z,3.47
2023-09-15T09:03:59.490Z,4.03
2023-09-15T09:06:27.716Z,3.60
2023-09-15T09:08:56.479Z,3.50
2023-09-15T09:11:24.442Z,3.55
2023-09-15T09:13:52.944Z,3.92
2023-09-15T09:16:22.759Z,3.85
2023-09-15T09:18:58.286Z,3.85
2023-09-15T09:21:26.927Z,3.67
2023-09-15T09:23:54.609Z,3.83
2023-09-15T09:26:22.233Z,3.88
2023-09-15T09:28:50.184Z,3.80
2023-09-15T09:31:18.137Z,4.20
2023-09-15T09:33:47.043Z,3.72
2023-09-15T09:36:17.323Z,3.80
2023-09-15T09:38:47.026Z,3.63
2023-09-15T09:41:15.427Z,3.90
2023-09-15T09:43:44.176Z,3.88
2023-09-15T09:46:12.576Z,4.10
2023-09-15T09:48:40.905Z,4.05
2023-09-15T09:51:10.090Z,4.30
2023-09-15T09:53:38.301Z,3.90
2023-09-15T09:56:06.848Z,4.15
2023-09-15T09:58:35.425Z,4.22
2023-09-15T10:01:05.434Z,4.63
2023-09-15T10:03:33.836Z,4.18
2023-09-15T10:06:01.762Z,3.97
2023-09-15T10:08:31.787Z,4.28
2023-09-15T10:10:59.972Z,4.50
2023-09-15T10:13:28.237Z,4.00
2023-09-15T10:15:56.253Z,4.00
2023-09-15T10:18:24.220Z,4.13
2023-09-15T10:20:53.746Z,4.40
2023-09-15T10:23:21.617Z,4.40
2023-09-15T10:25:51.223Z,4.43
2023-09-15T10:28:34.200Z,4.93
2023-09-15T10:31:09.689Z,4.53
2023-09-15T10:33:40.745Z,4.47
2023-09-15T10:36:13.091Z,4.65
2023-09-15T10:38:41.416Z,4.90
2023-09-15T10:41:12.353Z,4.28
2023-09-15T10:43:49.409Z,4.30
2023-09-15T10:46:17.234Z,4.32
2023-09-15T10:48:48.123Z,4.07
2023-09-15T10:51:17.576Z,4.65
2023-09-15T10:53:45.772Z,4.75
2023-09-15T10:56:15.265Z,4.03
2023-09-15T10:58:43.247Z,4.28
2023-09-15T11:01:11.706Z,4.47
2023-09-15T11:03:39.737Z,4.20
2023-09-15T11:06:09.870Z,4.55
2023-09-15T11:08:38.168Z,4.53
2023-09-15T11:11:08.500Z,4.60
2023-09-15T11:13:38.224Z,4.40
2023-09-15T11:16:06.083Z,4.55
2023-09-15T11:18:34.043Z,4.35
2023-09-15T11:21:02.647Z,4.50
2023-09-15T11:23:30.497Z,4.85
2023-09-15T11:26:05.034Z,4.40
2023-09-15T11:28:35.289Z,4.50
2023-09-15T11:31:07.587Z,4.63
2023-09-15T11:33:36.377Z,4.68
2023-09-15T11:36:04.501Z,4.68
2023-09-15T11:38:33.874Z,4.85
2023-09-15T11:41:01.700Z,4.32
2023-09-15T11:43:29.506Z,5.55
2023-09-15T11:45:57.496Z,4.38
2023-09-15T11:48:26.886Z,4.97
2023-09-15T11:50:55.139Z,4.78
2023-09-15T11:53:27.025Z,4.80
2023-09-15T11:55:55.104Z,5.13
2023-09-15T11:58:23.292Z,4.00
2023-09-15T12:00:51.933Z,4.57
2023-09-15T12:03:20.514Z,4.50
2023-09-15T12:05:49.670Z,4.57
2023-09-15T12:08:19.175Z,4.80
2023-09-15T12:11:01.370Z,4.63
2023-09-15T12:13:38.467Z,4.40
2023-09-15T12:16:06.291Z,4.80
2023-09-15T12:18:36.594Z,4.68
2023-09-15T12:21:11.106Z,4.90
2023-09-15T12:23:39.648Z,4.75
2023-09-15T12:26:08.430Z,5.07
2023-09-15T12:28:36.610Z,4.53
2023-09-15T12:31:05.210Z,5.60
2023-09-15T12:33:33.378Z,4.78
2023-09-15T12:36:06.489Z,5.15
2023-09-15T12:38:34.542Z,4.70
2023-09-15T12:41:03.765Z,4.57
2023-09-15T12:43:31.369Z,4.28
2023-09-15T12:45:59.163Z,4.72
2023-09-15T12:48:27.190Z,4.13
2023-09-15T12:50:55.114Z,4.63
2023-09-15T12:53:24.106Z,4.40
2023-09-15T12:55:51.882Z,4.18
2023-09-15T12:58:20.006Z,4.32
2023-09-15T13:00:47.834Z,4.32
2023-09-15T13:03:15.689Z,4.53
2023-09-15T13:05:44.314Z,4.30
2023-09-15T13:08:12.043Z,4.13
2023-09-15T13:10:41.673Z,4.03
2023-09-15T13:13:10.037Z,4.03
2023-09-15T13:15:37.802Z,3.97
2023-09-15T13:18:07.785Z,4.03
2023-09-15T13:20:35.531Z,4.20
2023-09-15T13:23:03.814Z,4.22
2023-09-15T13:25:32.125Z,4.82
2023-09-15T13:28:01.183Z,4.38
2023-09-15T13:30:29.217Z,4.00
2023-09-15T13:32:56.987Z,3.83
2023-09-15T13:35:24.818Z,4.32
2023-09-15T13:37:52.624Z,4.35
2023-09-15T13:40:20.179Z,3.50
2023-09-15T13:42:47.858Z,3.92
2023-09-15T13:45:16.951Z,3.90
2023-09-15T13:47:45.067Z,4.13
2023-09-15T13:50:12.928Z,3.72
2023-09-15T13:52:40.585Z,4.38
2023-09-15T13:55:08.956Z,3.58
2023-09-15T13:57:38.549Z,3.60
2023-09-15T14:00:06.952Z,3.95
2023-09-15T14:02:36.886Z,3.63
2023-09-15T14:05:05.475Z,3.17
2023-09-15T14:07:33.100Z,3.50
2023-09-15T14:10:00.908Z,3.33
2023-09-15T14:12:28.887Z,3.67
2023-09-15T14:14:56.585Z,3.85
2023-09-15T14:17:26.918Z,3.88
2023-09-15T14:19:56.725Z,3.83
2023-09-15T14:22:25.550Z,3.65
2023-09-15T14:24:53.315Z,3.75
2023-09-15T14:27:21.270Z,4.13
2023-09-15T14:29:49.395Z,3.92
2023-09-15T14:32:17.756Z,3.92
2023-09-15T14:34:45.468Z,3.78
2023-09-15T14:37:14.510Z,3.30
2023-09-15T14:39:43.454Z,4.82
2023-09-15T14:42:12.427Z,3.40
2023-09-15T14:44:40.057Z,3.90
2023-09-15T14:47:07.654Z,3.85
2023-09-15T14:49:35.332Z,3.83
2023-09-15T14:52:04.248Z,3.67
2023-09-15T14:54:33.911Z,3.67
2023-09-15T14:57:04.825Z,4.30
2023-09-15T14:59:32.415Z,3.72
2023-09-15T15:02:00.348Z,3.72
2023-09-15T15:04:28.449Z,3.95
2023-09-15T15:06:57.948Z,3.65
2023-09-15T15:09:26.169Z,3.75
2023-09-15T15:11:56.623Z,3.67
2023-09-15T15:14:24.262Z,3.20
2023-09-15T15:16:53.010Z,3.38
2023-09-15T15:19:20.833Z,3.33
2023-09-15T15:21:48.479Z,3.40
2023-09-15T15:24:16.138Z,3.58
2023-09-15T15:26:43.759Z,3.80
2023-09-15T15:29:12.936Z,3.47
2023-09-15T15:31:41.526Z,3.55
2023-09-15T15:34:09.225Z,3.35
2023-09-15T15:36:39.148Z,3.05
2023-09-15T15:39:08.646Z,4.25
2023-09-15T15:41:36.619Z,3.63
2023-09-15T15:44:04.236Z,3.70
2023-09-15T15:46:33.313Z,3.55
2023-09-15T15:49:01.361Z,3.35
2023-09-15T15:51:30.712Z,3.15
2023-09-15T15:53:59.793Z,2.83
2023-09-15T15:56:29.801Z,3.25
2023-09-15T15:58:57.502Z,3.40
2023-09-15T16:01:25.270Z,3.92
2023-09-15T16:03:54.338Z,3.85
2023-09-15T16:06:22.112Z,3.15
2023-09-15T16:08:50.341Z,5.75
2023-09-15T16:11:19.482Z,4.00
2023-09-15T16:13:47.740Z,3.13
2023-09-15T16:16:15.937Z,3.58
2023-09-15T16:18:43.676Z,3.45
2023-09-15T16:21:12.668Z,3.50
2023-09-15T16:23:40.484Z,3.20
2023-09-15T16:26:08.145Z,3.28
2023-09-15T16:28:37.212Z,7.10
2023-09-15T16:31:05.951Z,4.60
2023-09-15T16:33:33.797Z,3.15
2023-09-15T16:36:02.876Z,3.50
2023-09-15T16:38:32.614Z,3.20
2023-09-15T16:41:01.857Z,3.05
2023-09-15T16:43:31.241Z,3.40
2023-09-15T16:45:59.384Z,3.45
2023-09-15T16:48:27.368Z,3.40
2023-09-15T16:50:55.032Z,3.58
2023-09-15T16:53:22.756Z,4.10
2023-09-15T16:55:52.589Z,3.53
2023-09-15T16:58:20.183Z,3.25
2023-09-15T17:00:47.971Z,3.30
2023-09-15T17:03:15.922Z,2.75
2023-09-15T17:05:43.589Z,2.88
2023-09-15T17:08:11.616Z,2.88
2023-09-15T17:10:42.112Z,3.35
2023-09-15T17:13:11.567Z,3.33
2023-09-15T17:15:39.613Z,3.45
2023-09-15T17:18:08.569Z,3.47
2023-09-15T17:20:36.416Z,3.97
2023-09-15T17:23:05.090Z,3.33
2023-09-15T17:25:33.594Z,3.33
2023-09-15T17:28:01.495Z,3.03
2023-09-15T17:30:31.331Z,3.10
2023-09-15T17:32:59.515Z,3.63
2023-09-15T17:35:27.313Z,3.53
2023-09-15T17:37:55.663Z,3.47
2023-09-15T17:40:23.979Z,3.65
2023-09-15T17:42:51.915Z,3.80
2023-09-15T17:45:22.452Z,3.45
2023-09-15T17:47:51.620Z,3.63
2023-09-15T17:50:19.525Z,4.10
2023-09-15T17:52:47.166Z,6.13
2023-09-15T17:55:17.491Z,4.65
2023-09-15T17:57:46.771Z,3.50
2023-09-15T18:00:17.626Z,3.95
2023-09-15T18:02:45.942Z,4.18
2023-09-15T18:05:15.266Z,3.53
2023-09-15T18:07:43.249Z,4.25
2023-09-15T18:10:11.213Z,3.53
2023-09-15T18:12:39.109Z,4.28
2023-09-15T18:15:08.075Z,4.07
2023-09-15T18:17:36.430Z,3.90
2023-09-15T18:20:05.064Z,4.25
2023-09-15T18:22:34.267Z,4.53
2023-09-15T18:25:06.596Z,4.40
2023-09-15T18:27:35.114Z,4.43
2023-09-15T18:30:04.196Z,3.92
2023-09-15T18:32:32.911Z,4.03
2023-09-15T18:35:01.058Z,4.03
2023-09-15T18:37:28.699Z,3.97
2023-09-15T18:39:58.360Z,3.80
2023-09-15T18:42:26.008Z,4.00
2023-09-15T18:44:53.818Z,4.07
2023-09-15T18:47:24.559Z,3.72
2023-09-15T18:49:53.622Z,4.40
2023-09-15T18:52:21.291Z,3.72
2023-09-15T18:54:49.607Z,3.85
2023-09-15T18:57:19.150Z,3.72
2023-09-15T18:59:47.249Z,4.10
2023-09-15T19:02:15.483Z,4.60
2023-09-15T19:04:43.226Z,4.03
2023-09-15T19:07:11.071Z,4.80
2023-09-15T19:09:38.831Z,4.53
2023-09-15T19:12:07.118Z,5.07
2023-09-15T19:14:37.604Z,4.65
2023-09-15T19:17:05.488Z,4.53
2023-09-15T19:19:36.057Z,4.30
2023-09-15T19:22:03.698Z,5.05
2023-09-15T19:24:32.765Z,4.22
2023-09-15T19:27:00.666Z,4.80
2023-09-15T19:29:29.517Z,3.95
2023-09-15T19:31:58.973Z,4.63
2023-09-15T19:34:26.619Z,4.88
2023-09-15T19:36:54.424Z,4.13
2023-09-15T19:39:22.357Z,4.55
2023-09-15T19:41:51.129Z,4.72
2023-09-15T19:44:19.088Z,4.50
2023-09-15T19:46:50.002Z,4.07
2023-09-15T19:49:19.451Z,4.72
2023-09-15T19:51:47.481Z,5.32
2023-09-15T19:54:15.904Z,4.53
2023-09-15T19:56:44.328Z,4.45
2023-09-15T19:59:12.090Z,4.72
2023-09-15T20:01:39.767Z,4.03
2023-09-15T20:04:07.814Z,4.47
2023-09-15T20:06:36.924Z,4.70
2023-09-15T20:09:04.666Z,3.90
2023-09-15T20:11:32.425Z,4.20
2023-09-15T20:13:59.990Z,4.13
2023-09-15T20:16:28.705Z,4.30
2023-09-15T20:18:57.013Z,3.70
2023-09-15T20:21:26.696Z,4.45
2023-09-15T20:23:55.847Z,4.70
2023-09-15T20:26:23.395Z,4.93
2023-09-15T20:28:51.179Z,4.25
2023-09-15T20:31:20.264Z,3.88
2023-09-15T20:33:48.015Z,4.35
2023-09-15T20:36:15.936Z,4.70
2023-09-15T20:38:44.003Z,4.18
2023-09-15T20:41:13.515Z,3.83
2023-09-15T20:43:41.609Z,3.75
2023-09-15T20:46:09.292Z,4.10
2023-09-15T20:48:36.961Z,4.00
2023-09-15T20:51:05.577Z,4.20
2023-09-15T20:53:33.756Z,4.00
2023-09-15T20:56:02.147Z,4.18
2023-09-15T20:58:31.270Z,4.78
2023-09-15T21:00:59.494Z,4.65
2023-09-15T21:03:27.439Z,4.80
2023-09-15T21:05:56.044Z,4.97
2023-09-15T21:08:24.333Z,4.47
2023-09-15T21:10:52.024Z,5.60
2023-09-15T21:13:20.282Z,4.38
2023-09-15T21:15:49.806Z,4.80
2023-09-15T21:18:17.702Z,5.03
2023-09-15T21:20:45.734Z,5.18
2023-09-15T21:23:14.433Z,4.60
2023-09-15T21:25:42.820Z,5.78
2023-09-15T21:28:10.752Z,4.43
2023-09-15T21:30:39.446Z,5.53
2023-09-15T21:33:08.839Z,4.90
2023-09-15T21:35:36.561Z,4.95
2023-09-15T21:38:04.456Z,5.50
2023-09-15T21:40:33.488Z,4.72
2023-09-15T21:43:03.550Z,10.13
2023-09-15T21:45:31.238Z,4.80
2023-09-15T21:47:59.474Z,5.10
2023-09-15T21:50:29.359Z,4.35
2023-09-15T21:52:56.961Z,5.03
2023-09-15T21:55:25.005Z,5.38
2023-09-15T21:57:52.649Z,5.05
2023-09-15T22:00:27.216Z,5.10
2023-09-15T22:02:57.871Z,5.40
2023-09-15T22:05:26.583Z,4.50
2023-09-15T22:07:55.962Z,5.63
2023-09-15T22:10:24.038Z,5.35
2023-09-15T22:12:52.664Z,5.45
2023-09-15T22:15:20.747Z,4.95
2023-09-15T22:17:49.742Z,5.20
2023-09-15T22:20:20.833Z,6.32
2023-09-15T22:22:49.036Z,4.97
2023-09-15T22:25:18.728Z,4.70
2023-09-15T22:27:46.482Z,5.00
2023-09-15T22:30:14.231Z,4.75
2023-09-15T22:32:41.830Z,4.93
2023-09-15T22:35:11.001Z,5.28
2023-09-15T22:37:38.992Z,4.90
2023-09-15T22:40:09.946Z,5.20
2023-09-15T22:42:40.117Z,4.80
2023-09-15T22:45:08.731Z,5.03
2023-09-15T22:47:38.250Z,5.32
2023-09-15T22:50:07.301Z,4.70
2023-09-15T22:52:35.106Z,5.75
2023-09-15T22:55:03.227Z,4.93
2023-09-15T22:57:31.349Z,4.93
2023-09-15T23:00:01.133Z,4.90
2023-09-15T23:02:28.804Z,5.32
2023-09-15T23:04:59.655Z,4.93
2023-09-15T23:07:27.989Z,4.75
2023-09-15T23:09:56.108Z,4.97
2023-09-15T23:12:24.198Z,5.25
2023-09-15T23:14:51.822Z,5.10
2023-09-15T23:17:21.464Z,5.30
2023-09-15T23:19:50.206Z,5.22
2023-09-15T23:22:17.947Z,5.43
2023-09-15T23:24:45.644Z,5.03
2023-09-15T23:27:13.432Z,5.35
2023-09-15T23:29:41.204Z,5.38
2023-09-15T23:32:09.463Z,5.38
2023-09-15T23:34:38.738Z,5.18
2023-09-15T23:37:06.552Z,6.57
2023-09-15T23:39:36.284Z,5.22
2023-09-15T23:42:04.496Z,5.32
2023-09-15T23:44:33.886Z,4.85
2023-09-15T23:47:01.738Z,6.53
2023-09-15T23:49:30.477Z,5.15
2023-09-15T23:51:59.447Z,4.82
2023-09-15T23:54:27.116Z,5.05
2023-09-15T23:56:54.710Z,4.93
2023-09-15T23:59:22.460Z,4.60
